Time;durP1;ratioP1;P1;durP2;ratioP2;P2;SDS_P1;SDS_P2;PMS_P1;PMS_P2;Temp;Humidity;BMP_temperature;BMP_pressure;BME280_temperature;BME280_humidity;BME280_pressure;Samples;Min_cycle;Max_cycle;Signal;HPM_P1;HPM_P2
2023/08/18 00:02:06;;;;;;;28.88;16.38;;;;;;;19.99;85.45;100041.34;5041474;28;20204;-77
2023/08/18 00:04:31;;;;;;;32.00;17.70;;;;;;;19.94;85.48;100036.78;5039159;28;20482;-80
2023/08/18 00:06:56;;;;;;;27.57;15.80;;;;;;;19.92;85.95;100039.06;5043684;28;20048;-77
2023/08/18 00:09:21;;;;;;;27.30;15.10;;;;;;;19.90;85.79;100038.56;5040141;28;20290;-76
2023/08/18 00:11:47;;;;;;;25.90;15.50;;;;;;;19.92;86.03;100036.28;5039616;28;20269;-77
2023/08/18 00:14:12;;;;;;;27.45;15.70;;;;;;;19.92;86.02;100036.28;5041489;28;20266;-77
2023/08/18 00:16:37;;;;;;;25.97;16.27;;;;;;;19.91;85.79;100040.16;5041959;28;20028;-77
2023/08/18 00:19:02;;;;;;;25.50;14.03;;;;;;;19.89;86.15;100039.69;5040059;28;20747;-79
2023/08/18 00:21:28;;;;;;;25.45;14.60;;;;;;;19.90;86.03;100032.19;5039396;28;20272;-80
2023/08/18 00:23:53;;;;;;;39.17;18.88;;;;;;;19.85;86.11;100041.47;5040185;28;20029;-77
2023/08/18 00:26:18;;;;;;;29.77;16.73;;;;;;;19.77;86.94;100033.97;5040127;28;20025;-76
2023/08/18 00:28:44;;;;;;;28.67;17.00;;;;;;;19.71;86.79;100028.56;5039915;28;20043;-77
2023/08/18 00:31:09;;;;;;;30.08;18.42;;;;;;;19.75;86.96;100025.19;5041683;28;20832;-84
2023/08/18 00:33:34;;;;;;;28.90;16.67;;;;;;;19.73;87.04;100016.38;5043833;28;20485;-85
2023/08/18 00:36:00;;;;;;;35.03;16.27;;;;;;;19.72;87.06;100018.34;5045414;28;20357;-86
2023/08/18 00:38:25;;;;;;;24.92;14.05;;;;;;;19.70;87.02;100021.44;5042388;28;20949;-82
2023/08/18 00:40:50;;;;;;;23.73;14.02;;;;;;;19.63;87.55;100023.03;5041995;28;20120;-82
2023/08/18 00:43:16;;;;;;;26.67;15.67;;;;;;;19.65;87.50;100021.56;5045029;28;20029;-83
2023/08/18 00:45:42;;;;;;;26.77;14.70;;;;;;;19.63;87.71;100031.31;5043672;28;20731;-84
2023/08/18 00:48:08;;;;;;;27.83;14.18;;;;;;;19.62;87.46;100024.97;5044084;28;20025;-84
2023/08/18 00:50:34;;;;;;;30.27;15.77;;;;;;;19.60;87.67;100021.72;5023882;28;20049;-85
2023/08/18 00:52:59;;;;;;;27.80;14.63;;;;;;;19.59;87.72;100020.91;5043002;28;20061;-84
2023/08/18 00:55:28;;;;;;;25.13;15.80;;;;;;;19.64;87.93;100028.25;5039912;28;20033;-85
2023/08/18 00:57:58;;;;;;;22.65;13.63;;;;;;;19.64;88.02;100028.25;5039947;28;20064;-84
2023/08/18 01:00:23;;;;;;;25.60;15.18;;;;;;;19.65;87.56;100029.06;5039489;28;20037;-84
2023/08/18 01:02:51;;;;;;;29.77;15.73;;;;;;;19.65;87.57;100027.09;5040841;28;20033;-83
2023/08/18 01:05:18;;;;;;;29.55;14.55;;;;;;;19.71;88.03;100022.22;5040428;28;20108;-85
2023/08/18 01:07:48;;;;;;;26.80;15.57;;;;;;;19.66;87.49;100023.19;5039396;28;20124;-83
2023/08/18 01:10:13;;;;;;;29.60;15.05;;;;;;;19.71;88.01;100016.69;5042955;28;20032;-84
2023/08/18 01:13:13;;;;;;;25.45;14.93;;;;;;;19.68;87.72;100011.81;5041072;28;20025;-85
2023/08/18 01:15:42;;;;;;;25.42;14.13;;;;;;;19.66;88.27;100012.13;5040990;28;20560;-85
2023/08/18 01:18:09;;;;;;;23.92;13.32;;;;;;;19.62;88.33;100002.84;5038387;28;20033;-84
2023/08/18 01:20:36;;;;;;;28.15;15.00;;;;;;;19.66;88.57;100008.56;5040271;28;20158;-84
2023/08/18 01:23:03;;;;;;;31.13;15.05;;;;;;;19.69;88.18;100003.19;5040624;28;20394;-85
2023/08/18 01:25:29;;;;;;;29.05;13.60;;;;;;;19.67;88.19;100002.69;5040279;28;20509;-84
2023/08/18 01:27:57;;;;;;;24.10;15.57;;;;;;;19.63;88.62;99993.41;5040847;28;20474;-82
2023/08/18 01:30:50;;;;;;;34.10;15.55;;;;;;;19.68;88.52;99996.03;5043240;28;20028;-84
2023/08/18 01:33:24;;;;;;;25.15;14.85;;;;;;;19.71;88.40;99997.34;5038465;28;20040;-84
2023/08/18 01:35:54;;;;;;;28.98;15.20;;;;;;;19.68;88.61;99996.03;5040611;28;20042;-84
2023/08/18 01:38:22;;;;;;;28.15;14.57;;;;;;;19.64;88.99;99994.22;5040849;28;20059;-83
2023/08/18 01:40:50;;;;;;;25.98;14.75;;;;;;;19.65;88.90;99985.59;5039536;28;20033;-86
2023/08/18 01:43:15;;;;;;;26.10;14.27;;;;;;;19.64;89.08;99989.53;5039298;28;20029;-84
2023/08/18 01:45:40;;;;;;;24.90;14.67;;;;;;;19.67;88.87;99988.88;5039743;28;20368;-85
2023/08/18 01:48:06;;;;;;;27.17;15.67;;;;;;;19.68;88.89;99982.22;5042251;28;20266;-83
2023/08/18 01:50:31;;;;;;;26.80;14.45;;;;;;;19.68;88.76;99981.41;5039126;28;20271;-78
2023/08/18 01:52:57;;;;;;;29.20;15.43;;;;;;;19.66;89.14;99984.50;5039367;28;20116;-80
2023/08/18 01:55:22;;;;;;;38.33;17.27;;;;;;;19.66;88.98;99978.97;5037002;28;20071;-76
2023/08/18 01:57:47;;;;;;;29.63;14.90;;;;;;;19.65;89.06;99974.53;5035054;28;20041;-78
2023/08/18 02:00:12;;;;;;;28.23;15.70;;;;;;;19.65;89.38;99969.00;5032905;28;20049;-77
2023/08/18 02:02:38;;;;;;;25.25;14.70;;;;;;;19.66;89.45;99975.38;5039610;28;20258;-84
2023/08/18 02:05:03;;;;;;;27.13;14.80;;;;;;;19.68;89.02;99973.91;5039608;28;20043;-84
2023/08/18 02:07:28;;;;;;;26.13;13.05;;;;;;;19.71;89.45;99967.72;5038720;28;20029;-84
2023/08/18 02:09:54;;;;;;;26.53;15.10;;;;;;;19.70;89.03;99971.66;5042681;28;20029;-85
2023/08/18 02:12:19;;;;;;;27.77;16.10;;;;;;;19.64;89.05;99964.63;5038837;28;20250;-83
2023/08/18 02:14:44;;;;;;;26.10;15.17;;;;;;;19.67;88.98;99963.97;5037130;28;20346;-84
2023/08/18 02:17:10;;;;;;;28.57;15.87;;;;;;;19.68;89.22;99957.31;5042857;28;20277;-83
2023/08/18 02:19:35;;;;;;;29.17;16.98;;;;;;;19.69;89.21;99947.88;5039728;28;20349;-84
2023/08/18 02:22:00;;;;;;;29.83;16.52;;;;;;;19.70;89.24;99955.06;5040478;28;20062;-83
2023/08/18 02:24:26;;;;;;;32.72;17.02;;;;;;;19.66;89.32;99951.31;5040336;28;20025;-84
2023/08/18 02:26:51;;;;;;;27.10;17.15;;;;;;;19.66;89.37;99954.06;5043028;28;20033;-84
2023/08/18 02:29:17;;;;;;;28.60;14.93;;;;;;;19.70;89.24;99948.72;5042461;28;20021;-84
2023/08/18 02:31:42;;;;;;;30.80;15.07;;;;;;;19.71;89.21;99945.59;5040124;28;20258;-85
2023/08/18 02:34:07;;;;;;;30.80;17.63;;;;;;;19.67;89.54;99955.69;5037510;28;20282;-83
2023/08/18 02:36:33;;;;;;;28.93;15.27;;;;;;;19.67;89.63;99960.44;5040539;28;20254;-84
2023/08/18 02:38:58;;;;;;;30.48;16.52;;;;;;;19.70;89.74;99957.81;5047215;28;20281;-84
2023/08/18 02:41:24;;;;;;;24.00;13.90;;;;;;;19.70;89.35;99960.59;5039458;28;20615;-84
2023/08/18 02:43:49;;;;;;;26.52;15.80;;;;;;;19.72;89.39;99949.19;5042188;28;20266;-84
2023/08/18 02:46:14;;;;;;;30.42;15.25;;;;;;;19.71;89.57;99950.31;5045474;28;20025;-83
2023/08/18 02:48:40;;;;;;;34.85;17.90;;;;;;;19.65;89.38;99941.38;5039229;28;20386;-84
2023/08/18 02:51:07;;;;;;;29.15;16.63;;;;;;;19.67;89.88;99952.13;5038748;28;20029;-85
2023/08/18 02:53:33;;;;;;;29.00;16.70;;;;;;;19.65;89.91;99951.63;5043015;28;20032;-83
2023/08/18 02:55:59;;;;;;;24.67;14.88;;;;;;;19.67;89.78;99952.91;5040315;28;20025;-83
2023/08/18 02:58:27;;;;;;;27.48;15.88;;;;;;;19.66;89.78;99951.31;5044870;28;20029;-84
2023/08/18 03:00:52;;;;;;;29.77;17.08;;;;;;;19.62;90.25;99961.38;5043585;28;20028;-85
2023/08/18 03:03:17;;;;;;;29.05;17.90;;;;;;;19.67;90.08;99950.16;5042113;28;20025;-84
2023/08/18 03:05:43;;;;;;;30.17;16.67;;;;;;;19.70;89.89;99949.53;5036645;28;20053;-84
2023/08/18 03:08:10;;;;;;;27.48;14.00;;;;;;;19.69;89.69;99958.94;5042486;28;20254;-84
2023/08/18 03:10:35;;;;;;;25.55;16.58;;;;;;;19.69;89.54;99949.81;5044196;28;20026;-84
2023/08/18 03:13:03;;;;;;;30.25;14.57;;;;;;;19.68;90.00;99951.78;5045537;28;20487;-84
2023/08/18 03:15:29;;;;;;;27.95;16.05;;;;;;;19.70;89.60;99949.53;5037526;28;20727;-84
2023/08/18 03:17:54;;;;;;;24.90;15.40;;;;;;;19.66;89.89;99956.00;5040894;28;20100;-84
2023/08/18 03:20:19;;;;;;;30.63;15.67;;;;;;;19.63;89.94;99957.47;5044539;28;20037;-83
2023/08/18 03:22:44;;;;;;;27.33;15.23;;;;;;;19.64;90.30;99950.00;5041660;28;20025;-84
2023/08/18 03:25:10;;;;;;;27.42;14.82;;;;;;;19.66;90.05;99951.31;5040689;28;20360;-84
2023/08/18 03:27:35;;;;;;;28.23;14.27;;;;;;;19.66;90.26;99954.06;5044304;28;20033;-84
2023/08/18 03:30:00;;;;;;;25.27;14.30;;;;;;;19.67;90.04;99950.16;5040931;28;20601;-84
2023/08/18 03:32:26;;;;;;;25.83;14.02;;;;;;;19.67;89.95;99949.38;5035676;28;20250;-84
2023/08/18 03:34:54;;;;;;;29.40;14.25;;;;;;;19.58;89.73;99941.84;5020928;28;20101;-84
2023/08/18 03:37:19;;;;;;;25.58;13.80;;;;;;;19.55;90.31;99953.53;5044711;28;20547;-84
2023/08/18 03:39:44;;;;;;;24.33;14.18;;;;;;;19.57;90.29;99944.94;5049293;28;20032;-83
2023/08/18 03:42:10;;;;;;;22.90;13.73;;;;;;;19.51;90.56;99951.75;5038117;28;20051;-84
2023/08/18 03:44:35;;;;;;;23.60;13.50;;;;;;;19.53;90.29;99957.75;5042340;28;20025;-83
2023/08/18 03:47:00;;;;;;;23.02;13.23;;;;;;;19.47;90.71;99951.56;5051654;28;20033;-84
2023/08/18 03:49:25;;;;;;;24.50;13.63;;;;;;;19.47;90.85;99949.63;5051502;28;20017;-83
2023/08/18 03:51:51;;;;;;;27.57;15.70;;;;;;;19.51;90.69;99949.78;5042060;28;20273;-83
2023/08/18 03:54:16;;;;;;;29.40;15.23;;;;;;;19.51;90.74;99951.75;5039062;28;20263;-83
2023/08/18 03:56:41;;;;;;;25.90;14.27;;;;;;;19.51;90.70;99951.75;5047142;28;20272;-83
2023/08/18 03:59:06;;;;;;;28.50;15.37;;;;;;;19.54;90.74;99945.59;5047117;28;20325;-83
2023/08/18 04:01:32;;;;;;;28.37;14.30;;;;;;;19.56;90.23;99946.06;5044041;28;20285;-84
2023/08/18 04:03:59;;;;;;;27.35;15.02;;;;;;;19.60;90.52;99947.88;5038516;28;20917;-83
2023/08/18 04:06:24;;;;;;;23.73;13.07;;;;;;;19.60;90.43;99939.59;5039253;28;20114;-84
2023/08/18 04:09:06;;;;;;;32.95;15.07;;;;;;;19.58;90.45;99938.28;5036477;28;20040;-84
2023/08/18 04:11:31;;;;;;;30.52;16.27;;;;;;;19.62;90.43;99942.03;5042915;28;20058;-77
2023/08/18 04:13:56;;;;;;;27.60;15.45;;;;;;;19.65;90.27;99949.66;5035887;28;20029;-78
2023/08/18 04:16:22;;;;;;;35.17;19.23;;;;;;;19.62;89.75;99952.25;5034256;28;20110;-77
2023/08/18 04:18:47;;;;;;;29.20;15.77;;;;;;;19.58;90.27;99941.03;5034710;28;20029;-77
2023/08/18 04:21:12;;;;;;;24.60;14.60;;;;;;;19.62;90.38;99950.31;5035595;28;20270;-84
2023/08/18 04:23:37;;;;;;;25.57;15.13;;;;;;;19.60;90.65;99938.78;5017468;28;20325;-84
2023/08/18 04:26:03;;;;;;;22.37;13.27;;;;;;;19.60;90.20;99939.59;5035382;28;20292;-84
2023/08/18 04:28:29;;;;;;;25.93;14.23;;;;;;;19.63;90.33;99938.09;5035397;28;20325;-84
2023/08/18 04:30:55;;;;;;;27.80;15.55;;;;;;;19.62;90.05;99936.50;5035288;28;20368;-84
2023/08/18 04:33:20;;;;;;;31.20;16.40;;;;;;;19.60;89.96;99944.28;5035089;28;20066;-84
2023/08/18 04:35:45;;;;;;;25.17;13.90;;;;;;;19.60;89.93;99945.13;5036201;28;20282;-84
2023/08/18 04:38:13;;;;;;;27.85;16.70;;;;;;;19.55;90.08;99947.19;5035266;28;20273;-84
2023/08/18 04:40:38;;;;;;;27.70;15.15;;;;;;;19.59;90.39;99948.19;5035246;28;20040;-85
2023/08/18 04:43:04;;;;;;;25.08;14.15;;;;;;;19.60;90.24;99955.34;5033849;28;20034;-84
2023/08/18 04:45:29;;;;;;;27.87;14.83;;;;;;;19.62;89.93;99964.16;5035202;28;20073;-84
2023/08/18 04:47:54;;;;;;;24.40;14.43;;;;;;;19.54;89.64;99953.88;5035549;28;20270;-84
2023/08/18 04:50:20;;;;;;;27.83;13.83;;;;;;;19.57;89.87;99955.97;5034818;28;20298;-84
2023/08/18 04:52:46;;;;;;;24.63;14.88;;;;;;;19.61;89.78;99943.16;5034524;28;20744;-84
2023/08/18 04:55:11;;;;;;;31.23;16.65;;;;;;;19.65;90.05;99946.09;5033683;28;20036;-85
2023/08/18 04:57:36;;;;;;;23.43;13.50;;;;;;;19.66;90.04;99954.06;5035095;28;20090;-84
2023/08/18 05:00:02;;;;;;;27.20;15.47;;;;;;;19.66;89.84;99951.31;5034850;28;20266;-84
2023/08/18 05:02:28;;;;;;;30.13;15.43;;;;;;;19.64;89.63;99953.59;5034862;28;20274;-84
2023/08/18 05:04:53;;;;;;;25.98;14.40;;;;;;;19.66;89.85;99944.94;5034729;28;20044;-84
2023/08/18 05:07:20;;;;;;;25.27;14.00;;;;;;;19.66;89.88;99937.47;5034277;28;20406;-84
2023/08/18 05:09:45;;;;;;;26.27;15.13;;;;;;;19.66;89.89;99942.19;5034850;28;20671;-84
2023/08/18 05:12:11;;;;;;;27.03;14.77;;;;;;;19.64;89.86;99933.41;5034177;28;20029;-83
2023/08/18 05:14:36;;;;;;;23.30;14.10;;;;;;;19.62;89.74;99942.03;5033964;28;20266;-83
2023/08/18 05:17:02;;;;;;;23.07;13.27;;;;;;;19.61;89.89;99945.91;5034702;28;20337;-84
2023/08/18 05:19:27;;;;;;;23.58;13.15;;;;;;;19.57;90.17;99942.16;5034375;28;20645;-83
2023/08/18 05:21:52;;;;;;;27.53;13.73;;;;;;;19.60;89.87;99947.88;5034380;28;20069;-79
2023/08/18 05:24:17;;;;;;;22.60;12.10;;;;;;;19.58;89.64;99947.38;5032924;28;20337;-78
2023/08/18 05:26:44;;;;;;;24.65;12.48;;;;;;;19.59;90.06;99943.47;5034109;28;20037;-79
2023/08/18 05:29:09;;;;;;;17.63;9.98;;;;;;;19.61;89.81;99945.91;5033498;28;20021;-77
2023/08/18 05:31:37;;;;;;;19.70;10.50;;;;;;;19.56;89.49;99946.06;5034683;28;20036;-83
2023/08/18 05:34:03;;;;;;;16.95;10.15;;;;;;;19.50;90.02;99941.81;5034046;28;20305;-84
2023/08/18 05:36:28;;;;;;;17.35;10.77;;;;;;;19.54;89.93;99945.59;5016201;28;20503;-84
2023/08/18 05:38:53;;;;;;;17.53;9.60;;;;;;;19.55;89.47;99949.97;5034427;28;20075;-84
2023/08/18 05:41:18;;;;;;;17.33;9.40;;;;;;;19.53;89.67;99942.00;5033819;28;20289;-84
2023/08/18 05:43:44;;;;;;;14.07;8.00;;;;;;;19.48;89.50;99948.50;5033561;28;20217;-84
2023/08/18 05:46:09;;;;;;;15.10;9.20;;;;;;;19.44;89.82;99941.16;5033911;28;20254;-84
2023/08/18 05:48:35;;;;;;;12.32;7.53;;;;;;;19.41;89.54;99953.66;5033865;28;20090;-84
2023/08/18 05:51:00;;;;;;;15.73;7.95;;;;;;;19.42;90.01;99943.44;5033685;28;20048;-84
2023/08/18 05:53:26;;;;;;;15.15;8.73;;;;;;;19.38;89.48;99943.28;5033394;28;20028;-84
2023/08/18 05:55:52;;;;;;;16.30;8.40;;;;;;;19.40;89.64;99952.06;5034013;28;20933;-84
2023/08/18 05:58:18;;;;;;;14.80;8.82;;;;;;;19.46;89.70;99948.00;5034438;28;20401;-84
2023/08/18 06:00:44;;;;;;;16.00;9.38;;;;;;;19.49;89.50;99954.81;5033931;28;20040;-84
2023/08/18 06:03:09;;;;;;;15.88;8.45;;;;;;;19.47;89.64;99949.63;5033563;28;20029;-84
2023/08/18 06:05:34;;;;;;;22.98;11.13;;;;;;;19.44;89.73;99953.03;5033222;28;20040;-83
2023/08/18 06:08:00;;;;;;;16.85;8.82;;;;;;;19.45;89.73;99943.59;5016155;28;20119;-84
2023/08/18 06:10:25;;;;;;;19.63;9.82;;;;;;;19.48;89.83;99944.91;5033204;28;20445;-84
2023/08/18 06:12:51;;;;;;;17.92;9.52;;;;;;;19.53;89.93;99941.16;5033716;28;20363;-84
2023/08/18 06:15:17;;;;;;;16.63;8.63;;;;;;;19.50;89.87;99950.13;5015077;28;20041;-83
2023/08/18 06:17:43;;;;;;;14.85;7.93;;;;;;;19.53;90.04;99943.94;5033519;28;20033;-84
2023/08/18 06:20:08;;;;;;;15.75;8.18;;;;;;;19.56;89.64;99952.44;5033349;28;20044;-83
2023/08/18 06:22:34;;;;;;;15.88;8.77;;;;;;;19.61;89.48;99945.91;5033237;28;20111;-84
2023/08/18 06:24:59;;;;;;;15.32;7.63;;;;;;;19.64;89.52;99950.00;5033539;28;20393;-84
2023/08/18 06:27:24;;;;;;;16.17;8.82;;;;;;;19.62;89.51;99964.16;5032867;28;20579;-84
2023/08/18 06:29:50;;;;;;;13.57;7.60;;;;;;;19.62;89.33;99963.31;5033743;28;20470;-84
2023/08/18 06:32:15;;;;;;;17.40;8.70;;;;;;;19.61;89.40;99962.50;5033035;28;20261;-77
2023/08/18 06:34:41;;;;;;;13.05;7.32;;;;;;;19.62;89.21;99972.44;5031801;28;20048;-80
2023/08/18 06:37:06;;;;;;;12.77;6.57;;;;;;;19.60;89.03;99966.41;5032797;28;20037;-77
2023/08/18 06:39:32;;;;;;;12.95;7.53;;;;;;;19.62;89.63;99964.16;5032280;28;20066;-78
2023/08/18 06:41:57;;;;;;;15.93;7.17;;;;;;;19.63;89.19;99971.28;5032967;28;20334;-83
2023/08/18 06:44:22;;;;;;;15.57;6.93;;;;;;;19.65;89.03;99979.28;5032141;28;20277;-83
2023/08/18 06:46:48;;;;;;;14.88;6.78;;;;;;;19.67;89.06;99974.25;5015724;28;20403;-83
2023/08/18 06:49:13;;;;;;;11.93;6.57;;;;;;;19.68;88.88;99973.91;5032944;28;20036;-83
2023/08/18 06:51:39;;;;;;;14.27;8.20;;;;;;;19.69;88.84;99981.06;5032488;28;20022;-84
2023/08/18 06:54:05;;;;;;;14.88;8.18;;;;;;;19.70;88.77;99968.88;5032453;28;20036;-84
2023/08/18 06:56:30;;;;;;;16.10;8.00;;;;;;;19.69;89.06;99975.53;5032914;28;20041;-84
2023/08/18 06:58:55;;;;;;;15.50;7.80;;;;;;;19.73;89.01;99974.91;5033323;28;20091;-83
2023/08/18 07:01:21;;;;;;;15.97;6.97;;;;;;;19.75;88.89;99965.13;5032516;28;20309;-83
2023/08/18 07:03:47;;;;;;;17.45;7.88;;;;;;;19.81;88.89;99968.59;5032269;28;20266;-83
2023/08/18 07:06:13;;;;;;;14.38;6.97;;;;;;;19.84;88.79;99970.69;5033067;28;20060;-84
2023/08/18 07:08:39;;;;;;;15.35;7.60;;;;;;;19.85;88.62;99969.56;5015253;28;20490;-84
2023/08/18 07:11:04;;;;;;;12.32;7.55;;;;;;;19.87;88.82;99963.72;5032623;28;20024;-84
2023/08/18 07:13:29;;;;;;;15.53;6.57;;;;;;;19.88;88.99;99963.38;5031981;28;20044;-84
2023/08/18 07:15:55;;;;;;;24.60;6.43;;;;;;;19.90;89.03;99963.03;5032806;28;20349;-84
2023/08/18 07:18:20;;;;;;;14.48;7.00;;;;;;;19.92;88.78;99967.13;5035993;28;20033;-84
2023/08/18 07:20:46;;;;;;;17.77;7.13;;;;;;;19.97;88.75;99973.63;5036301;28;20045;-84
2023/08/18 07:23:11;;;;;;;13.65;7.68;;;;;;;19.91;88.71;99976.53;5035223;28;20312;-83
2023/08/18 07:25:39;;;;;;;13.15;8.07;;;;;;;19.89;88.58;99973.28;5035224;28;20037;-82
2023/08/18 07:28:04;;;;;;;16.80;9.23;;;;;;;19.86;88.49;99979.47;5036298;28;20097;-75
2023/08/18 07:30:29;;;;;;;19.58;7.38;;;;;;;19.92;88.68;99971.84;5034981;28;20073;-77
2023/08/18 07:32:56;;;;;;;12.95;7.47;;;;;;;19.99;88.66;99976.91;5036008;28;20037;-79
2023/08/18 07:35:21;;;;;;;12.60;7.05;;;;;;;19.97;88.75;99974.47;5034934;28;20548;-77
2023/08/18 07:37:47;;;;;;;12.98;6.18;;;;;;;20.03;88.75;99975.13;5035915;28;20052;-80
2023/08/18 07:40:12;;;;;;;12.57;7.00;;;;;;;20.04;88.69;99973.97;5035522;28;20132;-81
2023/08/18 07:42:38;;;;;;;17.92;7.65;;;;;;;20.05;88.55;99973.66;5036483;28;20270;-80
2023/08/18 07:45:05;;;;;;;12.60;7.43;;;;;;;20.10;88.73;99971.88;5035169;28;20045;-82
2023/08/18 07:47:30;;;;;;;14.32;7.95;;;;;;;20.14;88.30;99965.38;5034989;28;20087;-78
2023/08/18 07:49:56;;;;;;;14.82;8.25;;;;;;;20.16;88.08;99959.50;5035575;28;20033;-81
2023/08/18 07:52:21;;;;;;;14.32;7.95;;;;;;;20.17;88.05;99967.50;5034940;28;20036;-80
2023/08/18 07:54:46;;;;;;;13.27;7.30;;;;;;;20.18;88.04;99957.22;5035218;28;20154;-79
2023/08/18 07:57:12;;;;;;;14.63;7.95;;;;;;;20.22;88.04;99966.50;5034631;28;20119;-77
2023/08/18 07:59:37;;;;;;;14.47;7.83;;;;;;;20.23;87.87;99959.03;5034937;28;20033;-77
2023/08/18 08:02:02;;;;;;;15.23;7.30;;;;;;;20.27;87.96;99957.25;5035036;28;20731;-77
2023/08/18 08:04:28;;;;;;;11.90;7.00;;;;;;;20.32;87.60;99968.13;5034250;28;20553;-77
2023/08/18 08:06:56;;;;;;;14.25;7.88;;;;;;;20.25;87.48;99953.97;5035049;28;20036;-78
2023/08/18 08:09:23;;;;;;;16.13;7.97;;;;;;;20.25;87.57;99952.03;5034512;28;20372;-80
2023/08/18 08:11:49;;;;;;;14.00;7.57;;;;;;;20.23;87.71;99953.50;5035201;28;20037;-81
2023/08/18 08:14:14;;;;;;;11.70;6.60;;;;;;;20.23;87.75;99953.50;5034670;28;20035;-81
2023/08/18 08:16:39;;;;;;;13.87;7.43;;;;;;;20.22;88.02;99955.44;5016626;28;20112;-75
2023/08/18 08:19:05;;;;;;;15.30;7.72;;;;;;;20.19;87.60;99950.56;5034849;28;20274;-75
2023/08/18 08:21:31;;;;;;;14.63;7.93;;;;;;;20.18;88.39;99951.69;5034684;28;20033;-75
2023/08/18 08:23:56;;;;;;;17.33;8.80;;;;;;;20.26;88.32;99947.28;5033854;28;20742;-74
2023/08/18 08:26:21;;;;;;;18.80;8.60;;;;;;;20.32;87.67;99956.28;5034254;28;20403;-75
2023/08/18 08:28:47;;;;;;;15.27;8.50;;;;;;;20.32;87.59;99945.19;5033209;28;20270;-74
2023/08/18 08:31:12;;;;;;;13.87;8.87;;;;;;;20.32;87.78;99950.72;5034521;28;20321;-74
2023/08/18 08:33:38;;;;;;;14.00;8.13;;;;;;;20.38;87.50;99953.00;5034091;28;20305;-74
2023/08/18 08:36:03;;;;;;;14.50;7.43;;;;;;;20.41;87.58;99948.75;5034486;28;20667;-75
2023/08/18 08:38:28;;;;;;;11.85;6.20;;;;;;;20.48;87.55;99948.28;5033816;28;21104;-76
2023/08/18 08:40:55;;;;;;;10.82;6.72;;;;;;;20.49;87.05;99947.13;5016820;28;20043;-74
2023/08/18 08:43:21;;;;;;;12.73;7.00;;;;;;;20.44;87.53;99952.84;5033660;28;20220;-75
2023/08/18 08:45:46;;;;;;;16.58;8.18;;;;;;;20.40;87.88;99945.16;5034225;28;20115;-74
2023/08/18 08:48:13;;;;;;;14.40;7.72;;;;;;;20.44;87.83;99950.06;5033870;28;20033;-75
2023/08/18 08:50:44;;;;;;;12.90;6.82;;;;;;;20.51;88.17;99947.59;5033127;28;20466;-75
2023/08/18 08:53:12;;;;;;;13.27;7.13;;;;;;;20.63;87.90;99952.47;5033619;28;20504;-74
2023/08/18 08:55:38;;;;;;;14.93;7.40;;;;;;;20.72;87.46;99953.28;5033767;28;20315;-75
2023/08/18 08:58:04;;;;;;;12.85;7.32;;;;;;;20.83;86.87;99952.91;5033779;28;20061;-74
2023/08/18 09:00:30;;;;;;;17.17;9.68;;;;;;;20.90;86.35;99947.69;5033608;28;20422;-75
2023/08/18 09:03:00;;;;;;;16.80;7.23;;;;;;;20.99;86.59;99950.47;5033502;28;20037;-74
2023/08/18 09:05:28;;;;;;;13.35;7.35;;;;;;;21.07;86.23;99946.03;5032866;28;21156;-74
2023/08/18 09:07:53;;;;;;;12.35;7.70;;;;;;;21.12;86.10;99940.28;5033730;28;20082;-74
2023/08/18 09:10:18;;;;;;;14.17;7.73;;;;;;;21.15;85.80;99941.59;5033468;28;20482;-74
2023/08/18 09:12:45;;;;;;;13.73;8.23;;;;;;;21.21;86.29;99941.06;5033771;28;20270;-74
2023/08/18 09:15:10;;;;;;;23.52;9.60;;;;;;;21.30;85.73;99945.75;5033042;28;20040;-74
2023/08/18 09:17:35;;;;;;;22.70;9.57;;;;;;;21.32;85.39;99949.81;5033471;28;20038;-76
2023/08/18 09:20:01;;;;;;;11.97;7.53;;;;;;;21.33;85.21;99942.31;5033437;28;20293;-76
2023/08/18 09:22:27;;;;;;;14.23;7.57;;;;;;;21.41;85.18;99943.44;5033291;28;20258;-75
2023/08/18 09:24:53;;;;;;;11.40;7.72;;;;;;;21.49;85.23;99944.50;5032885;28;20033;-74
2023/08/18 09:27:20;;;;;;;17.77;9.05;;;;;;;21.55;85.03;99941.22;5033585;28;21169;-74
2023/08/18 09:29:45;;;;;;;13.27;8.13;;;;;;;21.64;84.74;99945.91;5033329;28;20095;-75
2023/08/18 09:32:11;;;;;;;17.40;9.18;;;;;;;21.71;84.54;99943.41;5033033;28;20037;-74
2023/08/18 09:34:37;;;;;;;16.10;9.90;;;;;;;21.75;84.29;99938.81;5032513;28;20056;-73
2023/08/18 09:37:03;;;;;;;18.90;9.23;;;;;;;21.84;84.24;99940.75;5033110;28;20045;-75
2023/08/18 09:39:28;;;;;;;14.45;8.75;;;;;;;21.87;83.99;99932.56;5033122;28;20044;-74
2023/08/18 09:41:54;;;;;;;16.40;8.77;;;;;;;21.95;84.25;99932.84;5033119;28;20128;-74
2023/08/18 09:44:20;;;;;;;19.83;7.72;;;;;;;21.98;83.82;99932.97;5032556;28;20270;-75
2023/08/18 09:46:56;;;;;;;12.88;8.60;;;;;;;22.03;83.51;99926.38;5033067;28;20033;-74
2023/08/18 09:49:23;;;;;;;16.35;9.32;;;;;;;21.96;84.02;99923.34;5032660;28;20029;-75
2023/08/18 09:52:12;;;;;;;12.65;7.85;;;;;;;22.08;83.79;99925.38;5032917;28;20037;-74
2023/08/18 09:54:45;;;;;;;14.45;8.98;;;;;;;22.18;83.49;99916.63;5032272;28;20092;-74
2023/08/18 09:57:24;;;;;;;15.00;8.50;;;;;;;22.28;83.58;99912.63;5032241;28;20037;-74
2023/08/18 09:59:55;;;;;;;32.85;10.90;;;;;;;22.37;83.28;99916.09;5032661;28;20110;-71
2023/08/18 10:02:22;;;;;;;20.52;9.27;;;;;;;22.42;82.76;99920.66;5032760;28;20037;-74
2023/08/18 10:04:49;;;;;;;12.65;8.77;;;;;;;22.47;82.62;99909.34;5032259;28;20029;-73
2023/08/18 10:07:15;;;;;;;16.15;9.93;;;;;;;22.56;82.63;99905.63;5032408;28;20036;-73
2023/08/18 10:09:41;;;;;;;20.33;10.32;;;;;;;22.59;82.32;99910.53;5032494;28;20029;-75
2023/08/18 10:12:08;;;;;;;27.55;9.90;;;;;;;22.60;82.38;99898.25;5032101;28;20393;-74
2023/08/18 10:14:34;;;;;;;16.23;8.93;;;;;;;22.62;82.26;99895.94;5032176;28;20033;-75
2023/08/18 10:17:01;;;;;;;18.83;11.88;;;;;;;22.61;82.37;99891.53;5031138;28;20037;-74
2023/08/18 10:19:50;;;;;;;13.90;9.35;;;;;;;22.56;82.59;99894.53;5031987;28;20391;-74
2023/08/18 10:22:17;;;;;;;18.15;10.35;;;;;;;22.55;82.55;99892.91;5014495;28;20502;-74
2023/08/18 10:24:47;;;;;;;22.73;9.50;;;;;;;22.52;82.98;99894.41;5031699;28;20478;-73
2023/08/18 10:27:14;;;;;;;17.42;7.97;;;;;;;22.57;82.98;99898.94;5032132;28;20119;-73
2023/08/18 10:29:42;;;;;;;16.98;8.70;;;;;;;22.59;82.88;99903.00;5031934;28;20025;-74
2023/08/18 10:32:08;;;;;;;14.70;8.52;;;;;;;22.66;82.83;99904.44;5031860;28;20028;-73
2023/08/18 10:34:36;;;;;;;11.48;8.50;;;;;;;22.69;82.43;99898.19;5031532;28;20045;-73
2023/08/18 10:37:03;;;;;;;13.98;8.88;;;;;;;22.70;83.24;99900.59;5031991;28;20071;-73
2023/08/18 10:39:36;;;;;;;10.77;8.13;;;;;;;22.71;82.87;99895.88;5031764;28;20494;-74
2023/08/18 10:42:15;;;;;;;14.10;8.60;;;;;;;22.81;83.39;99894.59;5032382;28;20167;-73
2023/08/18 10:45:22;;;;;;;11.05;6.95;;;;;;;22.94;83.23;99898.22;5031577;28;20043;-74
2023/08/18 10:47:48;;;;;;;51.85;11.23;;;;;;;22.93;82.66;99894.63;4913038;29;20470;-74
2023/08/18 10:50:14;;;;;;;14.40;8.67;;;;;;;22.96;82.40;99890.34;5011995;28;20096;-74
2023/08/18 10:52:40;;;;;;;15.10;8.20;;;;;;;23.02;82.74;99888.16;5033483;28;20755;-74
2023/08/18 10:55:06;;;;;;;12.43;8.48;;;;;;;23.07;83.53;99885.94;5035610;28;20029;-74
2023/08/18 10:57:33;;;;;;;12.80;7.82;;;;;;;23.11;82.65;99891.63;5035936;28;20107;-73
2023/08/18 10:59:59;;;;;;;18.92;8.55;;;;;;;23.17;82.91;99886.63;5036434;28;20029;-80
2023/08/18 11:02:24;;;;;;;13.65;8.68;;;;;;;23.24;83.38;99891.63;5018642;28;20481;-79
2023/08/18 11:04:50;;;;;;;10.63;7.05;;;;;;;23.27;82.59;99888.94;5019598;28;20024;-78
2023/08/18 11:07:18;;;;;;;13.43;8.88;;;;;;;23.36;83.27;99880.47;5040360;28;20375;-77
2023/08/18 11:09:43;;;;;;;15.55;9.23;;;;;;;23.43;82.03;99880.69;5041245;28;20052;-77
2023/08/18 11:12:09;;;;;;;15.07;9.32;;;;;;;23.43;82.71;99880.69;5038297;28;20467;-75
2023/08/18 11:14:34;;;;;;;11.10;7.70;;;;;;;23.43;82.49;99879.91;5036874;28;20465;-75
2023/08/18 11:16:59;;;;;;;11.07;7.20;;;;;;;23.52;82.32;99877.00;5035533;28;20159;-76